Anniston Metropolitan Airport
KANB : rendu visible

Aérodrome :











RETROUVEZ-NOUS SUR...

 
LOGIN :

S'inscrire | Disclaimer

   EN    FR    IT 

 









Légende :    VFR   VFR Marginal   IFR   IFR Intensif   IFR Très Intensif
Visi : 
Plafond : 
>= 8 km
>= 3000ft
5 à 8 km
1000 à 3000 ft
1500m à 5 km
500 à 1000 ft
800 à 1500m
200 à 500 ft
< 800m
< 200 ft
Symboles :   Orages  Brouillard  Fortes neiges  Fortes précipitations  Vent > 20 kt






- Altitude de l'aérodrome : 612 ft
- Code IATA : ANB


KANB - Anniston Metropolitan

DERNIER METAR :
  • 200353Z AUTO 36005KT 10SM CLR 02/M08 A3031 RMK AO2 SLP274 T00221078

METARs EXPIRÉS :
  • 200253Z AUTO VRB05G16KT 10SM CLR 03/M08 A3031 RMK AO2 SLP272 T00331078 51012
  • 200153Z AUTO 31004G15KT 10SM CLR 04/M07 A3030 RMK AO2 SLP269 T00391072

TAF KANB
Valide du 20 à 00h jusqu'au 21 à 00h UTC


192329Z 2000/2024 31009KT P6SM SKC
FM201500 35011KT P6SM SKC



MET'MAP, la Météo Aéronautique d'un coup d'oeil ! - Copyright ORBIFLY Décembre 2007 - Disclaimer

ORBIFLY MET'MAP TEAM :

Programmation & Développement : Alexandra Zaïnal
Sur une idée originale de : Baudouin d'Aumeries
Assistance à la programmation : Marc-Olivier Méhu
Soutien technique & logistique : Manuel Goepfert

Contact : metmap@orbifly.com




SOURCES & CREDITS :

   NOAA       Earth
Advisory